createdAt,value
2019-06-20T00:01:36.821Z,100.00
2019-06-20T00:04:05.445Z,100.00
2019-06-20T00:06:34.246Z,100.00
2019-06-20T00:09:03.162Z,100.00
2019-06-20T00:11:31.723Z,100.00
2019-06-20T00:14:00.233Z,100.00
2019-06-20T00:16:28.827Z,100.00
2019-06-20T00:18:57.395Z,100.00
2019-06-20T00:21:26.035Z,100.00
2019-06-20T00:23:54.769Z,100.00
2019-06-20T00:26:23.261Z,100.00
2019-06-20T00:28:51.829Z,100.00
2019-06-20T00:31:20.499Z,100.00
2019-06-20T00:33:49.125Z,100.00
2019-06-20T00:36:17.617Z,100.00
2019-06-20T00:38:46.219Z,100.00
2019-06-20T00:41:14.851Z,100.00
2019-06-20T00:43:43.475Z,100.00
2019-06-20T00:46:12.005Z,100.00
2019-06-20T00:48:40.634Z,100.00
2019-06-20T00:51:09.575Z,100.00
2019-06-20T00:53:38.242Z,100.00
2019-06-20T00:56:06.975Z,100.00
2019-06-20T00:58:35.550Z,100.00
2019-06-20T01:01:04.143Z,100.00
2019-06-20T01:03:32.781Z,100.00
2019-06-20T01:06:01.431Z,100.00
2019-06-20T01:08:30.082Z,100.00
2019-06-20T01:10:58.679Z,100.00
2019-06-20T01:13:33.683Z,100.00
2019-06-20T01:15:57.783Z,100.00
2019-06-20T01:18:26.410Z,100.00
2019-06-20T01:20:55.065Z,100.00
2019-06-20T01:23:23.595Z,100.00
2019-06-20T01:25:52.226Z,100.00
2019-06-20T01:28:20.861Z,100.00
2019-06-20T01:30:49.478Z,100.00
2019-06-20T01:33:17.997Z,100.00
2019-06-20T01:35:47.424Z,100.00
2019-06-20T01:38:16.100Z,100.00
2019-06-20T01:40:44.676Z,100.00
2019-06-20T01:43:13.322Z,100.00
2019-06-20T01:45:41.989Z,100.00
2019-06-20T01:48:10.617Z,100.00
2019-06-20T01:50:39.254Z,100.00
2019-06-20T01:53:07.941Z,100.00
2019-06-20T01:55:36.518Z,100.00
2019-06-20T01:58:05.180Z,100.00
2019-06-20T02:00:48.328Z,100.00
2019-06-20T02:03:17.271Z,100.00
2019-06-20T02:05:46.110Z,100.00
2019-06-20T02:08:15.094Z,100.00
2019-06-20T02:10:43.726Z,100.00
2019-06-20T02:13:12.362Z,100.00
2019-06-20T02:15:41.032Z,100.00
2019-06-20T02:18:10.966Z,100.00
2019-06-20T02:20:51.669Z,100.00
2019-06-20T02:23:20.511Z,100.00
2019-06-20T02:25:49.084Z,100.00
2019-06-20T02:28:17.710Z,100.00
2019-06-20T02:30:46.347Z,100.00
2019-06-20T02:33:15.032Z,100.00
2019-06-20T02:35:43.645Z,100.00
2019-06-20T02:38:12.290Z,100.00
2019-06-20T02:40:40.974Z,100.00
2019-06-20T02:43:09.611Z,100.00
2019-06-20T02:45:38.366Z,100.00
2019-06-20T02:48:07.186Z,100.00
2019-06-20T02:50:35.822Z,100.00
2019-06-20T02:53:05.941Z,100.00
2019-06-20T02:55:34.601Z,100.00
2019-06-20T02:58:03.177Z,100.00
2019-06-20T03:00:54.089Z,100.00
2019-06-20T03:03:22.978Z,100.00
2019-06-20T03:05:51.617Z,100.00
2019-06-20T03:08:21.591Z,100.00
2019-06-20T03:10:50.138Z,100.00
2019-06-20T03:13:18.775Z,100.00
2019-06-20T03:15:49.956Z,100.00
2019-06-20T03:18:18.005Z,100.00
2019-06-20T03:20:46.654Z,100.00
2019-06-20T03:23:15.330Z,100.00
2019-06-20T03:25:44.036Z,100.00
2019-06-20T03:28:12.621Z,100.00
2019-06-20T03:30:41.445Z,100.00
2019-06-20T03:33:10.093Z,100.00
2019-06-20T03:35:38.666Z,100.00
2019-06-20T03:38:07.283Z,100.00
2019-06-20T03:40:35.850Z,100.00
2019-06-20T03:43:04.418Z,100.00
2019-06-20T03:45:33.402Z,100.00
2019-06-20T03:48:01.973Z,100.00
2019-06-20T03:50:30.603Z,100.00
2019-06-20T03:53:00.858Z,100.00
2019-06-20T03:55:29.856Z,100.00
2019-06-20T03:57:59.267Z,100.00
2019-06-20T04:00:30.482Z,100.00
2019-06-20T04:02:59.041Z,100.00
2019-06-20T04:05:27.601Z,100.00
2019-06-20T04:07:56.679Z,100.00
2019-06-20T04:10:25.249Z,100.00
2019-06-20T04:12:53.886Z,100.00
2019-06-20T04:15:22.612Z,100.00
2019-06-20T04:17:51.139Z,100.00
2019-06-20T04:20:19.776Z,100.00
2019-06-20T04:22:48.391Z,100.00
2019-06-20T04:25:16.971Z,100.00
2019-06-20T04:27:45.548Z,100.00
2019-06-20T04:30:14.259Z,100.00
2019-06-20T04:32:42.884Z,100.00
2019-06-20T04:35:11.523Z,100.00
2019-06-20T04:37:40.205Z,100.00
2019-06-20T04:40:09.154Z,100.00
2019-06-20T04:42:37.717Z,99.53
2019-06-20T04:45:09.466Z,99.34
2019-06-20T04:47:38.103Z,97.76
2019-06-20T04:50:06.740Z,96.88
2019-06-20T04:52:35.337Z,94.37
2019-06-20T04:55:04.865Z,92.60
2019-06-20T04:57:33.432Z,86.51
2019-06-20T05:00:02.277Z,78.92
2019-06-20T05:02:36.790Z,72.27
2019-06-20T05:05:08.943Z,68.25
2019-06-20T05:07:37.566Z,63.13
2019-06-20T05:10:07.100Z,60.35
2019-06-20T05:12:35.790Z,59.97
2019-06-20T05:15:05.716Z,56.11
2019-06-20T05:17:34.351Z,53.49
2019-06-20T05:20:03.226Z,50.77
2019-06-20T05:22:31.784Z,50.54
2019-06-20T05:25:00.280Z,52.26
2019-06-20T05:27:28.892Z,49.74
2019-06-20T05:29:57.467Z,52.90
2019-06-20T05:32:26.034Z,51.88
2019-06-20T05:34:54.707Z,52.33
2019-06-20T05:37:23.336Z,52.07
2019-06-20T05:39:51.963Z,51.25
2019-06-20T05:42:20.574Z,51.95
2019-06-20T05:44:49.142Z,47.68
2019-06-20T05:47:17.776Z,46.59
2019-06-20T05:49:46.395Z,44.88
2019-06-20T05:52:14.963Z,46.36
2019-06-20T05:54:43.597Z,45.66
2019-06-20T05:57:12.264Z,45.90
2019-06-20T05:59:40.833Z,44.61
2019-06-20T06:02:09.475Z,47.65
2019-06-20T06:04:38.157Z,46.47
2019-06-20T06:07:06.776Z,48.09
2019-06-20T06:09:35.361Z,46.50
2019-06-20T06:12:04.014Z,45.49
2019-06-20T06:14:32.535Z,46.00
2019-06-20T06:17:01.145Z,46.35
2019-06-20T06:19:29.791Z,47.08
2019-06-20T06:21:58.360Z,48.09
2019-06-20T06:24:27.011Z,49.45
2019-06-20T06:26:59.766Z,45.29
2019-06-20T06:29:25.868Z,44.12
2019-06-20T06:31:54.541Z,42.67
2019-06-20T06:34:23.032Z,41.52
2019-06-20T06:36:51.600Z,42.03
2019-06-20T06:39:20.411Z,43.86
2019-06-20T06:41:48.983Z,43.60
2019-06-20T06:44:17.539Z,44.30
2019-06-20T06:46:54.151Z,44.48
2019-06-20T06:49:16.419Z,42.73
2019-06-20T06:51:45.006Z,40.69
2019-06-20T06:54:13.671Z,39.66
2019-06-20T06:56:42.324Z,41.14
2019-06-20T06:59:10.798Z,40.97
2019-06-20T07:01:39.670Z,39.35
2019-06-20T07:04:08.532Z,40.62
2019-06-20T07:06:37.080Z,40.50
2019-06-20T07:09:08.495Z,39.76
2019-06-20T07:11:37.147Z,40.97
2019-06-20T07:14:05.921Z,40.17
2019-06-20T07:16:34.563Z,39.83
2019-06-20T07:19:03.130Z,41.88
2019-06-20T07:21:31.741Z,40.37
2019-06-20T07:24:00.458Z,41.68
2019-06-20T07:26:29.288Z,43.62
2019-06-20T07:28:57.977Z,40.27
2019-06-20T07:31:26.620Z,40.15
2019-06-20T07:33:55.257Z,39.60
